sensor_id;sensor_type;location;lat;lon;timestamp;temperature;humidity
39023;DHT22;25908;51.984;5.928;2022-12-13T00:00:19;-0.80;99.90
39023;DHT22;25908;51.984;5.928;2022-12-13T00:02:45;-0.70;99.90
39023;DHT22;25908;51.984;5.928;2022-12-13T00:05:12;-0.70;99.90
39023;DHT22;25908;51.984;5.928;2022-12-13T00:07:38;-0.80;99.90
39023;DHT22;25908;51.984;5.928;2022-12-13T00:10:06;-0.80;99.90
39023;DHT22;25908;51.984;5.928;2022-12-13T00:12:32;-0.70;99.90
39023;DHT22;25908;51.984;5.928;2022-12-13T00:14:58;-0.80;99.90
39023;DHT22;25908;51.984;5.928;2022-12-13T00:17:23;-0.80;99.90
39023;DHT22;25908;51.984;5.928;2022-12-13T00:19:49;-0.80;99.90
39023;DHT22;25908;51.984;5.928;2022-12-13T00:22:15;-0.80;99.90
39023;DHT22;25908;51.984;5.928;2022-12-13T00:24:43;-0.80;99.90
39023;DHT22;25908;51.984;5.928;2022-12-13T00:27:09;-0.80;99.90
39023;DHT22;25908;51.984;5.928;2022-12-13T00:29:35;-0.80;99.90
39023;DHT22;25908;51.984;5.928;2022-12-13T00:32:00;-0.90;99.90
39023;DHT22;25908;51.984;5.928;2022-12-13T00:34:26;-0.90;99.90
39023;DHT22;25908;51.984;5.928;2022-12-13T00:36:53;-0.90;99.90
39023;DHT22;25908;51.984;5.928;2022-12-13T00:39:19;-0.90;99.90
39023;DHT22;25908;51.984;5.928;2022-12-13T00:41:45;-0.90;99.70
39023;DHT22;25908;51.984;5.928;2022-12-13T00:44:11;-0.90;99.70
39023;DHT22;25908;51.984;5.928;2022-12-13T00:46:38;-1.00;99.70
39023;DHT22;25908;51.984;5.928;2022-12-13T00:49:04;-1.00;99.70
39023;DHT22;25908;51.984;5.928;2022-12-13T00:51:32;-1.00;99.70
39023;DHT22;25908;51.984;5.928;2022-12-13T00:53:59;-1.00;99.60
39023;DHT22;25908;51.984;5.928;2022-12-13T00:56:27;-1.00;99.60
39023;DHT22;25908;51.984;5.928;2022-12-13T00:58:54;-1.00;99.70
39023;DHT22;25908;51.984;5.928;2022-12-13T01:01:25;-1.10;99.70
39023;DHT22;25908;51.984;5.928;2022-12-13T01:03:55;-1.10;99.80
39023;DHT22;25908;51.984;5.928;2022-12-13T01:06:25;-1.10;99.80
39023;DHT22;25908;51.984;5.928;2022-12-13T01:08:52;-1.10;99.70
39023;DHT22;25908;51.984;5.928;2022-12-13T01:11:17;-1.10;99.70
39023;DHT22;25908;51.984;5.928;2022-12-13T01:13:44;-1.10;99.70
39023;DHT22;25908;51.984;5.928;2022-12-13T01:16:10;-1.10;99.70
39023;DHT22;25908;51.984;5.928;2022-12-13T01:18:37;-1.10;99.70
39023;DHT22;25908;51.984;5.928;2022-12-13T01:21:06;-1.10;99.60
39023;DHT22;25908;51.984;5.928;2022-12-13T01:23:33;-1.10;99.50
39023;DHT22;25908;51.984;5.928;2022-12-13T01:26:02;-1.10;99.50
39023;DHT22;25908;51.984;5.928;2022-12-13T01:28:28;-1.20;99.50
39023;DHT22;25908;51.984;5.928;2022-12-13T01:30:59;-1.20;99.60
39023;DHT22;25908;51.984;5.928;2022-12-13T01:33:26;-1.10;99.70
39023;DHT22;25908;51.984;5.928;2022-12-13T01:35:52;-1.20;99.70
39023;DHT22;25908;51.984;5.928;2022-12-13T01:38:18;-1.20;99.60
39023;DHT22;25908;51.984;5.928;2022-12-13T01:40:47;-1.20;99.60
39023;DHT22;25908;51.984;5.928;2022-12-13T01:43:14;-1.20;99.60
39023;DHT22;25908;51.984;5.928;2022-12-13T01:45:41;-1.20;99.60
39023;DHT22;25908;51.984;5.928;2022-12-13T01:48:12;-1.30;99.60
39023;DHT22;25908;51.984;5.928;2022-12-13T01:50:43;-1.30;99.80
39023;DHT22;25908;51.984;5.928;2022-12-13T01:53:15;-1.20;99.80
39023;DHT22;25908;51.984;5.928;2022-12-13T01:55:43;-1.20;99.60
39023;DHT22;25908;51.984;5.928;2022-12-13T01:58:11;-1.20;99.60
39023;DHT22;25908;51.984;5.928;2022-12-13T02:00:37;-1.20;99.50
39023;DHT22;25908;51.984;5.928;2022-12-13T02:03:03;-1.20;99.50
39023;DHT22;25908;51.984;5.928;2022-12-13T02:05:36;-1.30;99.40
39023;DHT22;25908;51.984;5.928;2022-12-13T02:08:04;-1.30;99.50
39023;DHT22;25908;51.984;5.928;2022-12-13T02:10:30;-1.30;99.60
39023;DHT22;25908;51.984;5.928;2022-12-13T02:12:56;-1.30;99.60
39023;DHT22;25908;51.984;5.928;2022-12-13T02:15:24;-1.30;99.70
39023;DHT22;25908;51.984;5.928;2022-12-13T02:31:41;-1.30;99.60
39023;DHT22;25908;51.984;5.928;2022-12-13T02:34:09;-1.30;99.50
39023;DHT22;25908;51.984;5.928;2022-12-13T02:39:27;-1.40;99.60
39023;DHT22;25908;51.984;5.928;2022-12-13T02:42:04;-1.40;99.60
39023;DHT22;25908;51.984;5.928;2022-12-13T02:44:36;-1.40;99.60
39023;DHT22;25908;51.984;5.928;2022-12-13T02:47:16;-1.40;99.60
39023;DHT22;25908;51.984;5.928;2022-12-13T02:49:46;-1.40;99.50
39023;DHT22;25908;51.984;5.928;2022-12-13T02:52:15;-1.40;99.50
39023;DHT22;25908;51.984;5.928;2022-12-13T02:54:42;-1.50;99.50
39023;DHT22;25908;51.984;5.928;2022-12-13T02:57:27;-1.50;99.60
39023;DHT22;25908;51.984;5.928;2022-12-13T02:59:53;-1.50;99.60
39023;DHT22;25908;51.984;5.928;2022-12-13T03:02:58;-1.50;99.50
39023;DHT22;25908;51.984;5.928;2022-12-13T03:05:32;-1.50;99.40
39023;DHT22;25908;51.984;5.928;2022-12-13T03:11:12;-1.50;99.30
39023;DHT22;25908;51.984;5.928;2022-12-13T03:13:59;-1.50;99.20
39023;DHT22;25908;51.984;5.928;2022-12-13T03:19:00;-1.60;99.50
39023;DHT22;25908;51.984;5.928;2022-12-13T03:21:27;-1.60;99.50
39023;DHT22;25908;51.984;5.928;2022-12-13T03:23:52;-1.50;99.40
39023;DHT22;25908;51.984;5.928;2022-12-13T03:26:24;-1.50;99.40
39023;DHT22;25908;51.984;5.928;2022-12-13T03:28:50;-1.60;99.40
39023;DHT22;25908;51.984;5.928;2022-12-13T03:31:16;-1.60;99.50
39023;DHT22;25908;51.984;5.928;2022-12-13T03:33:42;-1.60;99.70
39023;DHT22;25908;51.984;5.928;2022-12-13T03:36:08;-1.60;99.40
39023;DHT22;25908;51.984;5.928;2022-12-13T03:38:34;-1.60;99.50
39023;DHT22;25908;51.984;5.928;2022-12-13T03:41:05;-1.60;99.50
39023;DHT22;25908;51.984;5.928;2022-12-13T03:43:31;-1.60;99.50
39023;DHT22;25908;51.984;5.928;2022-12-13T03:45:57;-1.60;99.50
39023;DHT22;25908;51.984;5.928;2022-12-13T03:48:22;-1.60;99.40
39023;DHT22;25908;51.984;5.928;2022-12-13T03:50:48;-1.60;99.40
39023;DHT22;25908;51.984;5.928;2022-12-13T03:53:14;-1.60;99.30
39023;DHT22;25908;51.984;5.928;2022-12-13T03:55:40;-1.60;99.30
39023;DHT22;25908;51.984;5.928;2022-12-13T03:58:05;-1.60;99.30
39023;DHT22;25908;51.984;5.928;2022-12-13T04:00:31;-1.60;99.30
39023;DHT22;25908;51.984;5.928;2022-12-13T04:02:56;-1.60;99.20
39023;DHT22;25908;51.984;5.928;2022-12-13T04:05:22;-1.60;99.10
39023;DHT22;25908;51.984;5.928;2022-12-13T04:07:48;-1.60;99.20
39023;DHT22;25908;51.984;5.928;2022-12-13T04:10:13;-1.60;99.30
39023;DHT22;25908;51.984;5.928;2022-12-13T04:12:39;-1.60;99.10
39023;DHT22;25908;51.984;5.928;2022-12-13T04:15:23;-1.60;99.00
39023;DHT22;25908;51.984;5.928;2022-12-13T04:17:48;-1.70;99.00
39023;DHT22;25908;51.984;5.928;2022-12-13T04:20:14;-1.70;99.00
39023;DHT22;25908;51.984;5.928;2022-12-13T04:22:40;-1.70;99.10
39023;DHT22;25908;51.984;5.928;2022-12-13T04:25:05;-1.70;99.40
39023;DHT22;25908;51.984;5.928;2022-12-13T04:27:31;-1.70;99.10
39023;DHT22;25908;51.984;5.928;2022-12-13T04:29:57;-1.70;99.10
39023;DHT22;25908;51.984;5.928;2022-12-13T04:32:22;-1.70;99.10
39023;DHT22;25908;51.984;5.928;2022-12-13T04:34:48;-1.70;99.10
39023;DHT22;25908;51.984;5.928;2022-12-13T04:37:13;-1.80;99.20
39023;DHT22;25908;51.984;5.928;2022-12-13T04:39:39;-1.80;99.20
39023;DHT22;25908;51.984;5.928;2022-12-13T04:42:04;-1.80;99.10
39023;DHT22;25908;51.984;5.928;2022-12-13T04:44:30;-1.80;99.10
39023;DHT22;25908;51.984;5.928;2022-12-13T04:46:56;-1.80;99.20
39023;DHT22;25908;51.984;5.928;2022-12-13T04:49:22;-1.80;99.20
39023;DHT22;25908;51.984;5.928;2022-12-13T04:51:48;-1.80;99.10
39023;DHT22;25908;51.984;5.928;2022-12-13T04:54:13;-1.80;99.00
39023;DHT22;25908;51.984;5.928;2022-12-13T04:56:39;-1.80;99.00
39023;DHT22;25908;51.984;5.928;2022-12-13T04:59:04;-1.80;99.00
39023;DHT22;25908;51.984;5.928;2022-12-13T05:01:30;-1.80;98.90
39023;DHT22;25908;51.984;5.928;2022-12-13T05:03:55;-1.90;98.90
39023;DHT22;25908;51.984;5.928;2022-12-13T05:06:21;-1.80;98.90
39023;DHT22;25908;51.984;5.928;2022-12-13T05:08:47;-1.80;98.80
39023;DHT22;25908;51.984;5.928;2022-12-13T05:11:12;-1.80;98.90
39023;DHT22;25908;51.984;5.928;2022-12-13T05:13:38;-1.80;99.10
39023;DHT22;25908;51.984;5.928;2022-12-13T05:16:05;-1.80;99.20
39023;DHT22;25908;51.984;5.928;2022-12-13T05:18:33;-1.80;99.30
39023;DHT22;25908;51.984;5.928;2022-12-13T05:21:07;-1.80;99.30
39023;DHT22;25908;51.984;5.928;2022-12-13T05:23:34;-1.90;99.20
39023;DHT22;25908;51.984;5.928;2022-12-13T05:25:59;-1.90;99.50
39023;DHT22;25908;51.984;5.928;2022-12-13T05:28:26;-1.90;99.20
39023;DHT22;25908;51.984;5.928;2022-12-13T05:30:54;-1.90;99.10
39023;DHT22;25908;51.984;5.928;2022-12-13T05:33:21;-1.90;99.10
39023;DHT22;25908;51.984;5.928;2022-12-13T05:35:46;-1.90;99.00
39023;DHT22;25908;51.984;5.928;2022-12-13T05:38:12;-1.90;99.00
39023;DHT22;25908;51.984;5.928;2022-12-13T05:40:38;-1.90;99.10
39023;DHT22;25908;51.984;5.928;2022-12-13T05:43:03;-1.90;99.10
39023;DHT22;25908;51.984;5.928;2022-12-13T05:45:30;-1.90;99.10
39023;DHT22;25908;51.984;5.928;2022-12-13T05:47:56;-1.90;99.20
39023;DHT22;25908;51.984;5.928;2022-12-13T05:50:22;-1.90;99.60
39023;DHT22;25908;51.984;5.928;2022-12-13T05:52:47;-1.90;99.30
39023;DHT22;25908;51.984;5.928;2022-12-13T05:55:13;-1.90;99.30
39023;DHT22;25908;51.984;5.928;2022-12-13T05:57:38;-1.90;99.30
39023;DHT22;25908;51.984;5.928;2022-12-13T06:00:06;-1.90;99.30
39023;DHT22;25908;51.984;5.928;2022-12-13T06:02:37;-1.90;99.30
39023;DHT22;25908;51.984;5.928;2022-12-13T06:05:03;-2.00;99.30
39023;DHT22;25908;51.984;5.928;2022-12-13T06:07:30;-2.00;99.40
39023;DHT22;25908;51.984;5.928;2022-12-13T06:09:55;-1.90;99.40
39023;DHT22;25908;51.984;5.928;2022-12-13T06:12:21;-2.00;99.40
39023;DHT22;25908;51.984;5.928;2022-12-13T06:14:46;-1.90;99.50
39023;DHT22;25908;51.984;5.928;2022-12-13T06:17:12;-1.90;99.60
39023;DHT22;25908;51.984;5.928;2022-12-13T06:19:37;-1.90;99.70
39023;DHT22;25908;51.984;5.928;2022-12-13T06:22:03;-1.90;99.70
39023;DHT22;25908;51.984;5.928;2022-12-13T06:24:29;-1.90;99.80
39023;DHT22;25908;51.984;5.928;2022-12-13T06:26:54;-1.80;99.90
39023;DHT22;25908;51.984;5.928;2022-12-13T06:29:21;-1.80;99.90
39023;DHT22;25908;51.984;5.928;2022-12-13T06:31:50;-1.80;99.90
39023;DHT22;25908;51.984;5.928;2022-12-13T06:34:15;-1.80;99.90
39023;DHT22;25908;51.984;5.928;2022-12-13T06:36:41;-1.80;99.90
39023;DHT22;25908;51.984;5.928;2022-12-13T06:39:07;-1.80;99.90
39023;DHT22;25908;51.984;5.928;2022-12-13T06:41:33;-1.70;99.90
39023;DHT22;25908;51.984;5.928;2022-12-13T06:43:59;-1.70;99.90
39023;DHT22;25908;51.984;5.928;2022-12-13T06:46:25;-1.70;99.90
39023;DHT22;25908;51.984;5.928;2022-12-13T06:48:51;-1.70;99.90
39023;DHT22;25908;51.984;5.928;2022-12-13T06:51:17;-1.60;99.90
39023;DHT22;25908;51.984;5.928;2022-12-13T06:53:43;-1.60;99.90
39023;DHT22;25908;51.984;5.928;2022-12-13T06:56:11;-1.60;99.90
39023;DHT22;25908;51.984;5.928;2022-12-13T06:58:37;-1.60;99.90
39023;DHT22;25908;51.984;5.928;2022-12-13T07:01:09;-1.60;99.90
39023;DHT22;25908;51.984;5.928;2022-12-13T07:03:35;-1.60;99.90
39023;DHT22;25908;51.984;5.928;2022-12-13T07:06:07;-1.60;99.90
39023;DHT22;25908;51.984;5.928;2022-12-13T07:08:34;-1.50;99.90
39023;DHT22;25908;51.984;5.928;2022-12-13T07:11:01;-1.60;99.90
39023;DHT22;25908;51.984;5.928;2022-12-13T07:13:26;-1.50;99.90
39023;DHT22;25908;51.984;5.928;2022-12-13T07:15:52;-1.50;99.90
39023;DHT22;25908;51.984;5.928;2022-12-13T07:18:18;-1.50;99.90
39023;DHT22;25908;51.984;5.928;2022-12-13T07:20:44;-1.50;99.90
39023;DHT22;25908;51.984;5.928;2022-12-13T07:23:10;-1.50;99.90
39023;DHT22;25908;51.984;5.928;2022-12-13T07:25:36;-1.50;99.90
39023;DHT22;25908;51.984;5.928;2022-12-13T07:28:03;-1.40;99.90
39023;DHT22;25908;51.984;5.928;2022-12-13T07:30:32;-1.40;99.90
39023;DHT22;25908;51.984;5.928;2022-12-13T07:32:59;-1.40;99.90
39023;DHT22;25908;51.984;5.928;2022-12-13T07:35:24;-1.50;99.90
39023;DHT22;25908;51.984;5.928;2022-12-13T07:37:50;-1.50;99.90
39023;DHT22;25908;51.984;5.928;2022-12-13T07:40:15;-1.50;99.90
39023;DHT22;25908;51.984;5.928;2022-12-13T07:42:48;-1.50;99.90
39023;DHT22;25908;51.984;5.928;2022-12-13T07:45:14;-1.60;99.90
39023;DHT22;25908;51.984;5.928;2022-12-13T07:47:39;-1.60;99.90
39023;DHT22;25908;51.984;5.928;2022-12-13T07:50:05;-1.50;99.90
39023;DHT22;25908;51.984;5.928;2022-12-13T07:52:31;-1.50;99.90
39023;DHT22;25908;51.984;5.928;2022-12-13T07:54:56;-1.50;99.90
39023;DHT22;25908;51.984;5.928;2022-12-13T07:57:22;-1.60;99.90
39023;DHT22;25908;51.984;5.928;2022-12-13T07:59:47;-1.60;99.90
39023;DHT22;25908;51.984;5.928;2022-12-13T08:02:13;-1.60;99.90
39023;DHT22;25908;51.984;5.928;2022-12-13T08:04:40;-1.60;99.90
39023;DHT22;25908;51.984;5.928;2022-12-13T08:07:06;-1.60;99.90
39023;DHT22;25908;51.984;5.928;2022-12-13T08:09:33;-1.60;99.90
39023;DHT22;25908;51.984;5.928;2022-12-13T08:11:59;-1.60;99.90
39023;DHT22;25908;51.984;5.928;2022-12-13T08:14:25;-1.60;99.90
39023;DHT22;25908;51.984;5.928;2022-12-13T08:16:50;-1.60;99.90
39023;DHT22;25908;51.984;5.928;2022-12-13T08:19:16;-1.60;99.90
39023;DHT22;25908;51.984;5.928;2022-12-13T08:21:41;-1.60;99.90
39023;DHT22;25908;51.984;5.928;2022-12-13T08:24:07;-1.60;99.90
39023;DHT22;25908;51.984;5.928;2022-12-13T08:26:33;-1.60;99.90
39023;DHT22;25908;51.984;5.928;2022-12-13T08:28:58;-1.60;99.90
39023;DHT22;25908;51.984;5.928;2022-12-13T08:31:24;-1.60;99.90
39023;DHT22;25908;51.984;5.928;2022-12-13T08:33:50;-1.60;99.90
39023;DHT22;25908;51.984;5.928;2022-12-13T08:36:16;-1.50;99.90
39023;DHT22;25908;51.984;5.928;2022-12-13T08:38:45;-1.50;99.90
39023;DHT22;25908;51.984;5.928;2022-12-13T08:41:12;-1.50;99.90
39023;DHT22;25908;51.984;5.928;2022-12-13T08:43:37;-1.50;99.90
39023;DHT22;25908;51.984;5.928;2022-12-13T08:46:04;-1.40;99.90
39023;DHT22;25908;51.984;5.928;2022-12-13T08:48:31;-1.40;99.90
39023;DHT22;25908;51.984;5.928;2022-12-13T08:51:01;-1.40;99.90
39023;DHT22;25908;51.984;5.928;2022-12-13T08:53:27;-1.30;99.90
39023;DHT22;25908;51.984;5.928;2022-12-13T08:55:53;-1.30;99.90
39023;DHT22;25908;51.984;5.928;2022-12-13T08:58:19;-1.20;99.90
39023;DHT22;25908;51.984;5.928;2022-12-13T09:00:44;-1.10;99.90
39023;DHT22;25908;51.984;5.928;2022-12-13T09:03:10;-1.10;99.90
39023;DHT22;25908;51.984;5.928;2022-12-13T09:05:36;-1.00;99.90
39023;DHT22;25908;51.984;5.928;2022-12-13T09:08:03;-1.00;99.90
39023;DHT22;25908;51.984;5.928;2022-12-13T09:10:29;-0.90;99.90
39023;DHT22;25908;51.984;5.928;2022-12-13T09:12:55;-0.90;99.90
39023;DHT22;25908;51.984;5.928;2022-12-13T09:15:26;-0.90;99.90
39023;DHT22;25908;51.984;5.928;2022-12-13T09:17:52;-0.90;99.90
39023;DHT22;25908;51.984;5.928;2022-12-13T09:20:17;-0.80;99.90
39023;DHT22;25908;51.984;5.928;2022-12-13T09:22:43;-0.70;99.90
39023;DHT22;25908;51.984;5.928;2022-12-13T09:25:08;-0.70;99.90
39023;DHT22;25908;51.984;5.928;2022-12-13T09:27:34;-0.70;99.90
39023;DHT22;25908;51.984;5.928;2022-12-13T09:30:00;-0.70;99.90
39023;DHT22;25908;51.984;5.928;2022-12-13T09:32:26;-0.60;99.90
39023;DHT22;25908;51.984;5.928;2022-12-13T09:34:52;-0.60;99.90
39023;DHT22;25908;51.984;5.928;2022-12-13T09:37:18;-0.60;99.90
39023;DHT22;25908;51.984;5.928;2022-12-13T09:39:44;-0.60;99.90
39023;DHT22;25908;51.984;5.928;2022-12-13T09:42:17;-0.50;99.90
39023;DHT22;25908;51.984;5.928;2022-12-13T09:44:53;-0.50;99.90
39023;DHT22;25908;51.984;5.928;2022-12-13T09:47:39;-0.40;99.90
39023;DHT22;25908;51.984;5.928;2022-12-13T09:50:11;-0.40;99.90
39023;DHT22;25908;51.984;5.928;2022-12-13T09:52:40;-0.40;99.90
39023;DHT22;25908;51.984;5.928;2022-12-13T09:57:44;-0.30;99.90
39023;DHT22;25908;51.984;5.928;2022-12-13T10:00:13;-0.20;99.90
39023;DHT22;25908;51.984;5.928;2022-12-13T10:02:45;-0.20;99.90
39023;DHT22;25908;51.984;5.928;2022-12-13T10:05:21;-0.20;99.90
39023;DHT22;25908;51.984;5.928;2022-12-13T10:07:51;-0.10;99.90
39023;DHT22;25908;51.984;5.928;2022-12-13T10:10:18;-0.10;99.90
39023;DHT22;25908;51.984;5.928;2022-12-13T10:12:45;0.00;99.90
39023;DHT22;25908;51.984;5.928;2022-12-13T10:15:15;0.00;99.90
39023;DHT22;25908;51.984;5.928;2022-12-13T10:17:42;0.10;99.90
39023;DHT22;25908;51.984;5.928;2022-12-13T10:20:17;0.10;99.90
39023;DHT22;25908;51.984;5.928;2022-12-13T10:22:43;0.10;99.90
39023;DHT22;25908;51.984;5.928;2022-12-13T10:25:09;0.20;99.90
39023;DHT22;25908;51.984;5.928;2022-12-13T10:27:39;0.20;99.90
39023;DHT22;25908;51.984;5.928;2022-12-13T10:32:53;0.20;99.90
39023;DHT22;25908;51.984;5.928;2022-12-13T10:37:46;0.30;99.90
39023;DHT22;25908;51.984;5.928;2022-12-13T10:43:18;0.30;99.90
39023;DHT22;25908;51.984;5.928;2022-12-13T10:51:23;0.30;99.90
39023;DHT22;25908;51.984;5.928;2022-12-13T10:53:56;0.40;99.90
39023;DHT22;25908;51.984;5.928;2022-12-13T10:56:43;0.30;99.90
39023;DHT22;25908;51.984;5.928;2022-12-13T11:01:57;0.30;99.90
39023;DHT22;25908;51.984;5.928;2022-12-13T11:04:31;0.30;99.90
39023;DHT22;25908;51.984;5.928;2022-12-13T11:07:20;0.40;99.90
39023;DHT22;25908;51.984;5.928;2022-12-13T11:09:46;0.40;99.90
39023;DHT22;25908;51.984;5.928;2022-12-13T11:12:17;0.40;99.90
39023;DHT22;25908;51.984;5.928;2022-12-13T11:14:57;0.50;99.90
39023;DHT22;25908;51.984;5.928;2022-12-13T11:17:25;0.50;99.80
39023;DHT22;25908;51.984;5.928;2022-12-13T11:19:54;0.50;99.80
39023;DHT22;25908;51.984;5.928;2022-12-13T11:22:36;0.50;99.50
39023;DHT22;25908;51.984;5.928;2022-12-13T11:25:08;0.50;99.80
39023;DHT22;25908;51.984;5.928;2022-12-13T11:27:56;0.60;99.90
39023;DHT22;25908;51.984;5.928;2022-12-13T11:33:41;0.60;99.40
39023;DHT22;25908;51.984;5.928;2022-12-13T11:36:30;0.60;99.50
39023;DHT22;25908;51.984;5.928;2022-12-13T11:42:18;0.70;99.70
39023;DHT22;25908;51.984;5.928;2022-12-13T11:45:18;0.70;99.30
39023;DHT22;25908;51.984;5.928;2022-12-13T11:48:04;0.70;99.50
39023;DHT22;25908;51.984;5.928;2022-12-13T11:50:35;0.70;99.50
39023;DHT22;25908;51.984;5.928;2022-12-13T11:53:33;0.70;99.50
39023;DHT22;25908;51.984;5.928;2022-12-13T11:56:20;0.80;99.10
39023;DHT22;25908;51.984;5.928;2022-12-13T12:01:47;0.70;98.90
39023;DHT22;25908;51.984;5.928;2022-12-13T12:04:25;0.70;98.80
39023;DHT22;25908;51.984;5.928;2022-12-13T12:07:10;0.80;98.70
39023;DHT22;25908;51.984;5.928;2022-12-13T12:09:47;0.80;98.60
39023;DHT22;25908;51.984;5.928;2022-12-13T12:12:44;0.80;98.80
39023;DHT22;25908;51.984;5.928;2022-12-13T12:15:20;0.70;98.50
39023;DHT22;25908;51.984;5.928;2022-12-13T12:17:47;0.70;98.60
39023;DHT22;25908;51.984;5.928;2022-12-13T12:20:15;0.60;98.80
39023;DHT22;25908;51.984;5.928;2022-12-13T12:23:08;0.60;98.50
39023;DHT22;25908;51.984;5.928;2022-12-13T12:25:43;0.60;98.70
39023;DHT22;25908;51.984;5.928;2022-12-13T12:31:01;0.60;98.80
39023;DHT22;25908;51.984;5.928;2022-12-13T12:33:46;0.60;98.50
39023;DHT22;25908;51.984;5.928;2022-12-13T12:41:44;0.50;98.10
39023;DHT22;25908;51.984;5.928;2022-12-13T12:55:17;0.50;97.70
39023;DHT22;25908;51.984;5.928;2022-12-13T12:57:52;0.50;97.90
39023;DHT22;25908;51.984;5.928;2022-12-13T13:00:23;0.50;98.00
39023;DHT22;25908;51.984;5.928;2022-12-13T13:03:12;0.50;98.00
39023;DHT22;25908;51.984;5.928;2022-12-13T13:05:44;0.50;97.40
39023;DHT22;25908;51.984;5.928;2022-12-13T13:10:49;0.60;97.90
39023;DHT22;25908;51.984;5.928;2022-12-13T13:13:47;0.60;97.60
39023;DHT22;25908;51.984;5.928;2022-12-13T13:16:28;0.70;97.80
39023;DHT22;25908;51.984;5.928;2022-12-13T13:18:54;0.70;97.70
39023;DHT22;25908;51.984;5.928;2022-12-13T13:21:30;0.70;97.70
39023;DHT22;25908;51.984;5.928;2022-12-13T13:26:33;0.80;98.00
39023;DHT22;25908;51.984;5.928;2022-12-13T13:32:20;0.80;98.20
39023;DHT22;25908;51.984;5.928;2022-12-13T13:34:49;0.80;98.20
39023;DHT22;25908;51.984;5.928;2022-12-13T13:40:00;0.80;98.00
39023;DHT22;25908;51.984;5.928;2022-12-13T13:42:30;0.80;97.90
39023;DHT22;25908;51.984;5.928;2022-12-13T13:50:50;0.70;97.80
39023;DHT22;25908;51.984;5.928;2022-12-13T13:53:39;0.70;97.90
39023;DHT22;25908;51.984;5.928;2022-12-13T14:02:30;0.80;98.10
39023;DHT22;25908;51.984;5.928;2022-12-13T14:08:13;0.80;98.10
39023;DHT22;25908;51.984;5.928;2022-12-13T14:10:49;0.80;97.90
39023;DHT22;25908;51.984;5.928;2022-12-13T14:22:14;0.80;97.90
39023;DHT22;25908;51.984;5.928;2022-12-13T14:30:20;0.80;97.70
39023;DHT22;25908;51.984;5.928;2022-12-13T14:32:47;0.80;97.80
39023;DHT22;25908;51.984;5.928;2022-12-13T14:35:23;0.80;98.00
39023;DHT22;25908;51.984;5.928;2022-12-13T14:42:54;0.80;98.00
39023;DHT22;25908;51.984;5.928;2022-12-13T14:45:27;0.80;98.20
39023;DHT22;25908;51.984;5.928;2022-12-13T14:47:56;0.80;98.20
39023;DHT22;25908;51.984;5.928;2022-12-13T14:50:24;0.90;98.00
39023;DHT22;25908;51.984;5.928;2022-12-13T14:52:51;0.90;97.90
39023;DHT22;25908;51.984;5.928;2022-12-13T14:55:26;0.90;97.70
39023;DHT22;25908;51.984;5.928;2022-12-13T14:57:57;0.90;97.80
39023;DHT22;25908;51.984;5.928;2022-12-13T15:00:27;0.90;97.90
39023;DHT22;25908;51.984;5.928;2022-12-13T15:02:56;0.90;97.90
39023;DHT22;25908;51.984;5.928;2022-12-13T15:05:25;0.90;98.00
39023;DHT22;25908;51.984;5.928;2022-12-13T15:07:51;0.90;97.90
39023;DHT22;25908;51.984;5.928;2022-12-13T15:13:01;0.90;97.80
39023;DHT22;25908;51.984;5.928;2022-12-13T15:15:35;0.80;97.90
39023;DHT22;25908;51.984;5.928;2022-12-13T15:18:22;0.90;98.00
39023;DHT22;25908;51.984;5.928;2022-12-13T15:20:49;0.80;98.20
39023;DHT22;25908;51.984;5.928;2022-12-13T15:28:30;0.90;98.50
39023;DHT22;25908;51.984;5.928;2022-12-13T15:30:57;0.80;98.50
39023;DHT22;25908;51.984;5.928;2022-12-13T15:33:25;0.80;98.80
39023;DHT22;25908;51.984;5.928;2022-12-13T15:36:26;0.70;98.90
39023;DHT22;25908;51.984;5.928;2022-12-13T15:41:33;0.70;99.30
39023;DHT22;25908;51.984;5.928;2022-12-13T15:44:05;0.70;99.30
39023;DHT22;25908;51.984;5.928;2022-12-13T15:46:33;0.80;99.20
39023;DHT22;25908;51.984;5.928;2022-12-13T15:49:03;0.70;99.20
39023;DHT22;25908;51.984;5.928;2022-12-13T15:51:29;0.70;99.40
39023;DHT22;25908;51.984;5.928;2022-12-13T15:56:40;0.70;99.30
39023;DHT22;25908;51.984;5.928;2022-12-13T15:59:30;0.70;99.30
39023;DHT22;25908;51.984;5.928;2022-12-13T16:01:56;0.60;99.20
39023;DHT22;25908;51.984;5.928;2022-12-13T16:04:30;0.60;99.20
39023;DHT22;25908;51.984;5.928;2022-12-13T16:07:00;0.60;99.10
39023;DHT22;25908;51.984;5.928;2022-12-13T16:09:32;0.60;99.00
39023;DHT22;25908;51.984;5.928;2022-12-13T16:12:00;0.60;98.90
39023;DHT22;25908;51.984;5.928;2022-12-13T16:19:22;0.70;98.50
39023;DHT22;25908;51.984;5.928;2022-12-13T16:21:48;0.60;98.40
39023;DHT22;25908;51.984;5.928;2022-12-13T16:24:14;0.60;98.50
39023;DHT22;25908;51.984;5.928;2022-12-13T16:26:47;0.60;98.70
39023;DHT22;25908;51.984;5.928;2022-12-13T16:29:16;0.60;98.70
39023;DHT22;25908;51.984;5.928;2022-12-13T16:31:44;0.60;98.70
39023;DHT22;25908;51.984;5.928;2022-12-13T16:34:10;0.60;98.70
39023;DHT22;25908;51.984;5.928;2022-12-13T16:36:36;0.60;98.70
39023;DHT22;25908;51.984;5.928;2022-12-13T16:39:05;0.60;98.80
39023;DHT22;25908;51.984;5.928;2022-12-13T16:41:38;0.60;98.80
39023;DHT22;25908;51.984;5.928;2022-12-13T16:44:06;0.60;98.80
39023;DHT22;25908;51.984;5.928;2022-12-13T16:46:33;0.60;99.00
39023;DHT22;25908;51.984;5.928;2022-12-13T16:49:00;0.60;99.10
39023;DHT22;25908;51.984;5.928;2022-12-13T16:51:26;0.60;99.10
39023;DHT22;25908;51.984;5.928;2022-12-13T16:53:51;0.60;99.00
39023;DHT22;25908;51.984;5.928;2022-12-13T16:56:17;0.60;99.00
39023;DHT22;25908;51.984;5.928;2022-12-13T16:58:46;0.60;99.00
39023;DHT22;25908;51.984;5.928;2022-12-13T17:01:14;0.60;99.00
39023;DHT22;25908;51.984;5.928;2022-12-13T17:03:40;0.60;99.30
39023;DHT22;25908;51.984;5.928;2022-12-13T17:06:08;0.60;98.90
39023;DHT22;25908;51.984;5.928;2022-12-13T17:08:35;0.50;98.80
39023;DHT22;25908;51.984;5.928;2022-12-13T17:11:01;0.50;99.00
39023;DHT22;25908;51.984;5.928;2022-12-13T17:13:27;0.50;99.10
39023;DHT22;25908;51.984;5.928;2022-12-13T17:15:52;0.50;99.00
39023;DHT22;25908;51.984;5.928;2022-12-13T17:18:18;0.50;99.00
39023;DHT22;25908;51.984;5.928;2022-12-13T17:20:45;0.50;98.80
39023;DHT22;25908;51.984;5.928;2022-12-13T17:23:11;0.50;98.90
39023;DHT22;25908;51.984;5.928;2022-12-13T17:25:37;0.50;98.70
39023;DHT22;25908;51.984;5.928;2022-12-13T17:28:03;0.50;98.60
39023;DHT22;25908;51.984;5.928;2022-12-13T17:30:29;0.50;98.60
39023;DHT22;25908;51.984;5.928;2022-12-13T17:32:59;0.50;98.70
39023;DHT22;25908;51.984;5.928;2022-12-13T17:35:26;0.50;98.60
39023;DHT22;25908;51.984;5.928;2022-12-13T17:37:52;0.60;98.50
39023;DHT22;25908;51.984;5.928;2022-12-13T17:40:18;0.60;98.60
39023;DHT22;25908;51.984;5.928;2022-12-13T17:42:47;0.60;98.70
39023;DHT22;25908;51.984;5.928;2022-12-13T17:45:13;0.60;98.50
39023;DHT22;25908;51.984;5.928;2022-12-13T17:47:39;0.60;98.60
39023;DHT22;25908;51.984;5.928;2022-12-13T17:50:05;0.50;98.70
39023;DHT22;25908;51.984;5.928;2022-12-13T17:52:31;0.50;98.80
39023;DHT22;25908;51.984;5.928;2022-12-13T17:54:56;0.60;98.80
39023;DHT22;25908;51.984;5.928;2022-12-13T17:57:24;0.60;98.70
39023;DHT22;25908;51.984;5.928;2022-12-13T17:59:50;0.60;98.50
39023;DHT22;25908;51.984;5.928;2022-12-13T18:02:16;0.60;98.40